createdAt,value
2018-11-28T00:00:19.713Z,101056.02
2018-11-28T00:02:47.830Z,101051.89
2018-11-28T00:05:15.863Z,101051.00
2018-11-28T00:07:43.875Z,101050.66
2018-11-28T00:10:13.085Z,101050.09
2018-11-28T00:12:41.525Z,101042.48
2018-11-28T00:15:12.831Z,101048.67
2018-11-28T00:17:41.028Z,101054.47
2018-11-28T00:20:11.314Z,101050.14
2018-11-28T00:22:39.340Z,101045.46
2018-11-28T00:25:08.017Z,101045.89
2018-11-28T00:27:36.046Z,101041.21
2018-11-28T00:30:06.404Z,101045.02
2018-11-28T00:32:34.425Z,101039.48
2018-11-28T00:35:02.469Z,101039.48
2018-11-28T00:37:30.415Z,101039.86
2018-11-28T00:39:58.520Z,101041.34
2018-11-28T00:42:29.550Z,101040.44
2018-11-28T00:44:58.126Z,101043.39
2018-11-28T00:47:26.185Z,101042.99
2018-11-28T00:49:54.267Z,101033.55
2018-11-28T00:52:22.224Z,101039.61
2018-11-28T00:54:50.245Z,101040.52
2018-11-28T00:57:18.239Z,101039.16
2018-11-28T00:59:46.255Z,101039.61
2018-11-28T01:02:14.249Z,101038.30
2018-11-28T01:04:42.344Z,101042.23
2018-11-28T01:07:10.340Z,101048.62
2018-11-28T01:09:38.375Z,101051.34
2018-11-28T01:12:06.385Z,101040.95
2018-11-28T01:14:34.369Z,101039.67
2018-11-28T01:17:02.339Z,101034.59
2018-11-28T01:19:30.404Z,101046.95
2018-11-28T01:21:58.550Z,101039.80
2018-11-28T01:24:26.748Z,101044.20
2018-11-28T01:26:54.739Z,101042.31
2018-11-28T01:29:22.727Z,101048.77
2018-11-28T01:31:50.785Z,101044.88
2018-11-28T01:34:18.812Z,101050.04
2018-11-28T01:36:46.821Z,101045.92
2018-11-28T01:39:14.915Z,101035.09
2018-11-28T01:41:42.927Z,101033.87
2018-11-28T01:44:11.001Z,101039.67
2018-11-28T01:46:39.018Z,101036.31
2018-11-28T01:49:07.138Z,101029.41
2018-11-28T01:51:35.158Z,101030.65
2018-11-28T01:54:03.238Z,101032.08
2018-11-28T01:56:31.298Z,101024.78
2018-11-28T01:58:59.408Z,101026.53
2018-11-28T02:01:27.443Z,101023.91
2018-11-28T02:03:55.848Z,101031.62
2018-11-28T02:06:23.858Z,101018.75
2018-11-28T02:08:51.848Z,101016.22
2018-11-28T02:11:19.863Z,101012.38
2018-11-28T02:13:47.828Z,101013.77
2018-11-28T02:16:15.846Z,101015.12
2018-11-28T02:18:43.818Z,101010.05
2018-11-28T02:21:11.897Z,101017.20
2018-11-28T02:23:40.023Z,101004.75
2018-11-28T02:26:08.035Z,101008.17
2018-11-28T02:28:36.098Z,101007.33
2018-11-28T02:31:04.297Z,101012.96
2018-11-28T02:33:32.263Z,101008.62
2018-11-28T02:36:00.288Z,101011.98
2018-11-28T02:38:28.268Z,101018.56
2018-11-28T02:40:56.259Z,101015.86
2018-11-28T02:43:24.160Z,101016.63
2018-11-28T02:46:03.162Z,101009.70
2018-11-28T02:48:31.130Z,101010.69
2018-11-28T02:50:59.133Z,101009.47
2018-11-28T02:53:27.104Z,101022.62
2018-11-28T02:55:55.104Z,101017.91
2018-11-28T02:58:23.053Z,101019.52
2018-11-28T03:00:51.049Z,101007.51
2018-11-28T03:03:19.018Z,101010.09
2018-11-28T03:05:47.088Z,101007.02
2018-11-28T03:08:15.079Z,101008.75
2018-11-28T03:10:43.134Z,101007.00
2018-11-28T03:13:11.083Z,101003.98
2018-11-28T03:15:40.013Z,101004.44
2018-11-28T03:18:08.393Z,101000.23
2018-11-28T03:20:36.533Z,100997.98
2018-11-28T03:23:05.087Z,100996.63
2018-11-28T03:25:33.133Z,100996.16
2018-11-28T03:28:01.102Z,100996.95
2018-11-28T03:30:29.239Z,101004.16
2018-11-28T03:32:59.078Z,100995.71
2018-11-28T03:35:27.154Z,100986.78
2018-11-28T03:37:55.124Z,101000.48
2018-11-28T03:40:23.148Z,100999.71
2018-11-28T03:42:51.149Z,101001.02
2018-11-28T03:45:19.158Z,101004.75
2018-11-28T03:47:47.094Z,101003.13
2018-11-28T03:50:15.600Z,101006.35
2018-11-28T03:52:43.673Z,101012.38
2018-11-28T03:55:13.313Z,101014.14
2018-11-28T03:57:41.646Z,101013.82
2018-11-28T04:00:14.081Z,101005.95
2018-11-28T04:02:42.104Z,101004.09
2018-11-28T04:05:10.488Z,101002.84
2018-11-28T04:07:38.550Z,100998.09
2018-11-28T04:10:10.349Z,100998.16
2018-11-28T04:12:39.020Z,100995.05
2018-11-28T04:15:24.256Z,100992.85
2018-11-28T04:17:52.140Z,100985.65
2018-11-28T04:20:23.438Z,100982.70
2018-11-28T04:22:51.472Z,100985.70
2018-11-28T04:25:22.663Z,100986.47
2018-11-28T04:27:50.870Z,100977.45
2018-11-28T04:30:22.821Z,100976.41
2018-11-28T04:32:51.914Z,100974.88
2018-11-28T04:35:19.971Z,100982.98
2018-11-28T04:37:47.935Z,100988.53
2018-11-28T04:40:17.688Z,100987.23
2018-11-28T04:42:46.285Z,100990.98
2018-11-28T04:45:16.285Z,100988.38
2018-11-28T04:47:44.391Z,100989.27
2018-11-28T04:50:12.632Z,100986.04
2018-11-28T04:52:40.706Z,100985.27
2018-11-28T04:55:10.391Z,100985.27
2018-11-28T04:57:38.383Z,100978.45
2018-11-28T05:00:24.920Z,100976.49
2018-11-28T05:02:54.006Z,100981.26
2018-11-28T05:05:21.978Z,100985.11
2018-11-28T05:07:50.660Z,100984.89
2018-11-28T05:10:21.575Z,100994.39
2018-11-28T05:12:50.196Z,100992.55
2018-11-28T05:15:19.145Z,100998.91
2018-11-28T05:17:49.105Z,100992.41
2018-11-28T05:20:20.214Z,100987.53
2018-11-28T05:22:48.300Z,100986.91
2018-11-28T05:25:18.233Z,100987.36
2018-11-28T05:27:46.750Z,100984.78
2018-11-28T05:30:17.700Z,100985.60
2018-11-28T05:32:45.890Z,100985.97
2018-11-28T05:35:15.252Z,100985.39
2018-11-28T05:37:43.405Z,100984.06
2018-11-28T05:40:19.833Z,100983.09
2018-11-28T05:42:48.165Z,100984.53
2018-11-28T05:45:16.335Z,100979.00
2018-11-28T05:47:44.615Z,100985.00
2018-11-28T05:50:18.939Z,100981.52
2018-11-28T05:52:47.059Z,100977.66
2018-11-28T05:55:16.106Z,100988.03
2018-11-28T05:57:44.240Z,100997.67
2018-11-28T06:00:17.819Z,100992.09
2018-11-28T06:02:45.943Z,100994.72
2018-11-28T06:05:13.988Z,100991.43
2018-11-28T06:07:42.125Z,100991.80
2018-11-28T06:10:10.164Z,100988.89
2018-11-28T06:12:38.195Z,100985.33
2018-11-28T06:15:08.713Z,100988.12
2018-11-28T06:17:37.054Z,100979.59
2018-11-28T06:20:08.718Z,100982.75
2018-11-28T06:22:37.001Z,100984.12
2018-11-28T06:25:06.614Z,100988.95
2018-11-28T06:27:34.664Z,100983.34
2018-11-28T06:30:02.688Z,100987.30
2018-11-28T06:32:30.640Z,100987.36
2018-11-28T06:34:58.938Z,100987.67
2018-11-28T06:37:26.976Z,100988.70
2018-11-28T06:39:54.894Z,100991.17
2018-11-28T06:42:22.946Z,100992.52
2018-11-28T06:44:51.108Z,100989.98
2018-11-28T06:47:19.243Z,100990.99
2018-11-28T06:49:47.224Z,100991.05
2018-11-28T06:52:15.774Z,101000.58
2018-11-28T06:54:43.730Z,100994.58
2018-11-28T06:57:11.723Z,101009.13
2018-11-28T06:59:39.769Z,101007.67
2018-11-28T07:02:07.735Z,101011.91
2018-11-28T07:04:35.750Z,101000.58
2018-11-28T07:07:03.685Z,101003.16
2018-11-28T07:09:31.697Z,101002.53
2018-11-28T07:11:59.707Z,101008.06
2018-11-28T07:14:27.822Z,101016.23
2018-11-28T07:16:55.890Z,101022.69
2018-11-28T07:19:24.000Z,101035.91
2018-11-28T07:21:51.995Z,101031.84
2018-11-28T07:24:19.995Z,101029.55
2018-11-28T07:26:47.950Z,101038.25
2018-11-28T07:29:16.152Z,101040.91
2018-11-28T07:31:44.158Z,101041.57
2018-11-28T07:34:12.331Z,101034.72
2018-11-28T07:36:40.345Z,101034.04
2018-11-28T07:39:08.328Z,101026.20
2018-11-28T07:41:36.855Z,101025.50
2018-11-28T07:44:04.889Z,101022.46
2018-11-28T07:46:32.835Z,101020.58
2018-11-28T07:49:00.905Z,101033.17
2018-11-28T07:51:28.883Z,101018.27
2018-11-28T07:53:56.949Z,101024.74
2018-11-28T07:56:24.945Z,101021.39
2018-11-28T07:58:53.192Z,101021.07
2018-11-28T08:01:21.333Z,101020.36
2018-11-28T08:03:50.689Z,101022.05
2018-11-28T08:06:19.069Z,101025.92
2018-11-28T08:08:47.701Z,101024.09
2018-11-28T08:11:15.893Z,101017.77
2018-11-28T08:13:44.254Z,101024.23
2018-11-28T08:16:12.441Z,101020.33
2018-11-28T08:18:40.653Z,101017.38
2018-11-28T08:21:08.974Z,101008.56
2018-11-28T08:23:37.122Z,101012.46
2018-11-28T08:26:05.546Z,101012.87
2018-11-28T08:28:33.914Z,100999.29
2018-11-28T08:31:02.216Z,101001.55
2018-11-28T08:33:30.394Z,100990.53
2018-11-28T08:35:58.525Z,100994.77
2018-11-28T08:38:26.794Z,100985.23
2018-11-28T08:40:54.942Z,101008.06
2018-11-28T08:43:23.125Z,100989.68
2018-11-28T08:45:51.395Z,100988.98
2018-11-28T08:48:19.536Z,100991.19
2018-11-28T08:50:48.514Z,100988.09
2018-11-28T08:53:16.654Z,100992.49
2018-11-28T08:55:45.415Z,100971.89
2018-11-28T08:58:13.521Z,101001.38
2018-11-28T09:00:41.794Z,100996.90
2018-11-28T09:03:09.954Z,100994.13
2018-11-28T09:05:38.135Z,100987.72
2018-11-28T09:08:06.294Z,101002.46
2018-11-28T09:10:34.474Z,101007.53
2018-11-28T09:13:04.320Z,101005.77
2018-11-28T09:15:31.474Z,101001.20
2018-11-28T09:17:59.761Z,101003.87
2018-11-28T09:20:28.714Z,100997.67
2018-11-28T09:22:56.950Z,101001.06
2018-11-28T09:25:25.182Z,100987.97
2018-11-28T09:27:54.634Z,100990.16
2018-11-28T09:30:23.075Z,100992.92
2018-11-28T09:32:51.634Z,100982.20
2018-11-28T09:35:19.997Z,100993.30
2018-11-28T09:37:48.234Z,100981.47
2018-11-28T09:40:17.536Z,100976.47
2018-11-28T09:42:45.714Z,100968.86
2018-11-28T09:45:15.074Z,100965.15
2018-11-28T09:47:43.314Z,100976.80
2018-11-28T09:50:14.334Z,100957.62
2018-11-28T09:52:42.643Z,100967.42
2018-11-28T09:55:12.395Z,100948.33
2018-11-28T09:57:40.594Z,100947.50
2018-11-28T10:00:13.094Z,100963.19
2018-11-28T10:02:41.494Z,100953.02
2018-11-28T10:05:11.735Z,100966.55
2018-11-28T10:07:40.043Z,100974.53
2018-11-28T10:10:10.791Z,100969.66
2018-11-28T10:12:39.095Z,100975.08
2018-11-28T10:15:10.975Z,100966.58
2018-11-28T10:17:39.230Z,100959.55
2018-11-28T10:20:08.703Z,100954.86
2018-11-28T10:22:36.854Z,100954.55
2018-11-28T10:25:06.035Z,100959.76
2018-11-28T10:27:34.203Z,100959.67
2018-11-28T10:30:02.575Z,100957.19
2018-11-28T10:32:30.718Z,100957.97
2018-11-28T10:34:58.956Z,100953.66
2018-11-28T10:37:27.495Z,100951.45
2018-11-28T10:39:55.675Z,100955.84
2018-11-28T10:42:24.090Z,100949.59
2018-11-28T10:44:52.096Z,100964.05
2018-11-28T10:47:20.204Z,100954.45
2018-11-28T10:49:48.495Z,100957.79
2018-11-28T10:52:16.896Z,100942.91
2018-11-28T10:54:45.196Z,100943.65
2018-11-28T10:57:13.344Z,100939.31
2018-11-28T10:59:41.524Z,100951.63
2018-11-28T11:02:15.024Z,100938.77
2018-11-28T11:04:48.596Z,100936.62
2018-11-28T11:07:22.195Z,100940.86
2018-11-28T11:10:00.124Z,100938.05
2018-11-28T11:12:33.784Z,100937.05
2018-11-28T11:15:02.012Z,100921.25
2018-11-28T11:17:31.075Z,100920.42
2018-11-28T11:19:59.312Z,100917.81
2018-11-28T11:22:27.555Z,100921.09
2018-11-28T11:24:55.695Z,100914.58
2018-11-28T11:27:23.878Z,100921.87
2018-11-28T11:29:52.115Z,100924.85
2018-11-28T11:32:20.795Z,100910.52
2018-11-28T11:34:49.015Z,100904.16
2018-11-28T11:37:17.203Z,100907.08
2018-11-28T11:39:45.475Z,100913.22
2018-11-28T11:42:13.717Z,100899.81
2018-11-28T11:44:41.995Z,100912.22
2018-11-28T11:47:10.236Z,100896.80
2018-11-28T11:49:38.436Z,100880.56
2018-11-28T11:52:06.596Z,100879.58
2018-11-28T11:54:34.844Z,100892.61
2018-11-28T11:57:03.027Z,100889.91
2018-11-28T11:59:31.292Z,100884.07
2018-11-28T12:01:59.556Z,100877.02
2018-11-28T12:04:27.815Z,100874.72
2018-11-28T12:06:56.096Z,100875.41
2018-11-28T12:09:24.246Z,100867.53
2018-11-28T12:11:52.538Z,100880.48
2018-11-28T12:14:21.095Z,100870.65
2018-11-28T12:16:49.436Z,100869.66
2018-11-28T12:19:17.696Z,100869.28
2018-11-28T12:21:45.956Z,100850.50
2018-11-28T12:24:14.234Z,100877.48
2018-11-28T12:26:42.557Z,100859.55
2018-11-28T12:29:10.815Z,100844.67
2018-11-28T12:31:39.373Z,100860.75
2018-11-28T12:34:07.610Z,100824.72
2018-11-28T12:36:36.139Z,100864.92
2018-11-28T12:39:07.039Z,100846.19
2018-11-28T12:41:36.105Z,100853.62
2018-11-28T12:44:04.922Z,100850.61
2018-11-28T12:46:33.619Z,100846.38
2018-11-28T12:49:02.139Z,100853.39
2018-11-28T12:51:30.747Z,100841.45
2018-11-28T12:53:59.327Z,100851.92
2018-11-28T12:56:28.047Z,100853.89
2018-11-28T12:58:56.608Z,100854.86
2018-11-28T13:01:25.126Z,100858.44
2018-11-28T13:03:53.587Z,100840.78
2018-11-28T13:06:22.226Z,100853.55
2018-11-28T13:08:50.786Z,100850.34
2018-11-28T13:11:19.366Z,100863.68
2018-11-28T13:13:48.006Z,100871.50
2018-11-28T13:16:16.844Z,100858.77
2018-11-28T13:18:45.389Z,100866.08
2018-11-28T13:21:13.815Z,100866.91
2018-11-28T13:23:42.413Z,100863.08
2018-11-28T13:26:10.952Z,100871.00
2018-11-28T13:28:39.909Z,100855.95
2018-11-28T13:31:08.410Z,100857.81
2018-11-28T13:33:36.949Z,100850.44
2018-11-28T13:36:05.988Z,100840.94
2018-11-28T13:38:34.610Z,100842.71
2018-11-28T13:41:03.669Z,100860.80
2018-11-28T13:43:35.736Z,100852.89
2018-11-28T13:46:07.152Z,100837.20
2018-11-28T13:48:33.177Z,100846.84
2018-11-28T13:51:01.629Z,100856.96
2018-11-28T13:53:30.189Z,100846.91
2018-11-28T13:58:27.949Z,100836.95
2018-11-28T14:00:56.569Z,100834.34
2018-11-28T14:03:25.150Z,100825.33
2018-11-28T14:05:53.688Z,100823.93
2018-11-28T14:08:22.389Z,100823.03
2018-11-28T14:10:51.129Z,100825.08
2018-11-28T14:13:19.638Z,100832.14
2018-11-28T14:15:48.210Z,100830.22
2018-11-28T14:18:18.088Z,100839.41
2018-11-28T14:20:46.849Z,100828.14
2018-11-28T14:23:15.528Z,100830.28
2018-11-28T14:25:44.355Z,100824.33
2018-11-28T14:28:13.309Z,100823.18
2018-11-28T14:30:43.237Z,100819.49
2018-11-28T14:33:11.737Z,100818.03
2018-11-28T14:35:40.290Z,100817.26
2018-11-28T14:38:08.890Z,100811.67
2018-11-28T14:40:37.519Z,100802.56
2018-11-28T14:43:07.014Z,100815.58
2018-11-28T14:45:36.109Z,100804.63
2018-11-28T14:48:04.879Z,100821.73
2018-11-28T14:50:33.619Z,100822.25
2018-11-28T14:53:03.220Z,100808.14
2018-11-28T14:55:34.157Z,100815.58
2018-11-28T14:58:02.677Z,100809.07
2018-11-28T15:00:32.117Z,100817.66
2018-11-28T15:03:04.076Z,100815.42
2018-11-28T15:06:07.457Z,100811.52
2018-11-28T15:08:36.237Z,100815.73
2018-11-28T15:11:06.989Z,100798.73
2018-11-28T15:13:35.969Z,100798.95
2018-11-28T15:16:04.669Z,100780.03
2018-11-28T15:18:33.257Z,100786.39
2018-11-28T15:21:02.272Z,100779.48
2018-11-28T15:23:30.751Z,100788.23
2018-11-28T15:26:00.329Z,100786.69
2018-11-28T15:28:28.109Z,100789.16
2018-11-28T15:30:56.669Z,100799.58
2018-11-28T15:33:26.089Z,100780.78
2018-11-28T15:35:54.729Z,100774.98
2018-11-28T15:38:23.311Z,100781.55
2018-11-28T15:40:51.849Z,100772.80
2018-11-28T15:43:20.457Z,100783.02
2018-11-28T15:45:49.109Z,100800.16
2018-11-28T15:48:17.591Z,100772.76
2018-11-28T15:50:46.129Z,100782.48
2018-11-28T15:53:14.738Z,100804.94
2018-11-28T15:55:43.319Z,100781.25
2018-11-28T15:58:11.949Z,100787.98
2018-11-28T16:00:40.569Z,100788.14
2018-11-28T16:03:09.056Z,100781.72
2018-11-28T16:05:37.689Z,100767.47
2018-11-28T16:08:06.389Z,100774.52
2018-11-28T16:10:39.849Z,100776.12
2018-11-28T16:13:08.488Z,100759.02
2018-11-28T16:15:45.497Z,100775.55
2018-11-28T16:18:14.118Z,100768.37
2018-11-28T16:20:42.729Z,100757.55
2018-11-28T16:23:11.357Z,100765.38
2018-11-28T16:25:40.149Z,100756.41
2018-11-28T16:28:09.289Z,100750.37
2018-11-28T16:30:37.969Z,100736.24
2018-11-28T16:33:07.396Z,100731.66
2018-11-28T16:35:36.956Z,100739.31
2018-11-28T16:38:06.337Z,100734.04
2018-11-28T16:40:35.057Z,100716.67
2018-11-28T16:43:03.708Z,100714.30
2018-11-28T16:45:32.377Z,100705.17
2018-11-28T16:48:00.969Z,100701.90
2018-11-28T16:50:29.617Z,100703.73
2018-11-28T16:52:58.168Z,100712.09
2018-11-28T16:55:26.692Z,100712.56
2018-11-28T16:57:55.748Z,100715.20
2018-11-28T17:00:26.028Z,100702.44
2018-11-28T17:02:55.389Z,100712.56
2018-11-28T17:05:24.209Z,100720.14
2018-11-28T17:07:53.388Z,100701.16
2018-11-28T17:10:24.088Z,100729.56
2018-11-28T17:12:53.529Z,100707.05
2018-11-28T17:15:22.229Z,100712.02
2018-11-28T17:17:51.028Z,100729.08
2018-11-28T17:20:23.656Z,100724.23
2018-11-28T17:22:53.335Z,100728.01
2018-11-28T17:25:23.036Z,100732.22
2018-11-28T17:27:51.725Z,100721.80
2018-11-28T17:30:21.774Z,100710.70
2018-11-28T17:32:50.867Z,100709.84
2018-11-28T17:35:19.508Z,100716.59
2018-11-28T17:37:48.908Z,100707.47
2018-11-28T17:40:19.888Z,100728.21
2018-11-28T17:42:50.608Z,100697.72
2018-11-28T17:45:19.560Z,100730.28
2018-11-28T17:47:48.220Z,100713.35
2018-11-28T17:50:19.828Z,100725.17
2018-11-28T17:53:19.632Z,100712.58
2018-11-28T17:55:50.466Z,100712.21
2018-11-28T17:58:19.172Z,100690.00
2018-11-28T18:00:47.704Z,100720.12
2018-11-28T18:03:16.444Z,100709.91
2018-11-28T18:05:44.964Z,100693.20
2018-11-28T18:08:13.687Z,100707.30
2018-11-28T18:10:46.570Z,100708.16
2018-11-28T18:13:18.204Z,100694.81
2018-11-28T18:15:51.484Z,100699.13
2018-11-28T18:18:21.864Z,100699.28
2018-11-28T18:20:50.559Z,100693.14
2018-11-28T18:23:19.175Z,100690.37
2018-11-28T18:25:47.884Z,100698.35
2018-11-28T18:28:16.644Z,100691.30
2018-11-28T18:30:45.224Z,100689.53
2018-11-28T18:33:14.531Z,100667.76
2018-11-28T18:35:43.345Z,100685.93
2018-11-28T18:38:12.004Z,100668.83
2018-11-28T18:40:40.984Z,100671.63
2018-11-28T18:43:10.424Z,100668.30
2018-11-28T18:45:44.333Z,100652.56
2018-11-28T18:48:12.912Z,100669.33
2018-11-28T18:50:41.404Z,100669.62
2018-11-28T18:53:10.032Z,100682.48
2018-11-28T18:55:38.886Z,100686.03
2018-11-28T18:58:09.066Z,100670.16
2018-11-28T19:00:37.583Z,100684.19
2018-11-28T19:03:07.306Z,100697.29
2018-11-28T19:05:35.903Z,100702.80
2018-11-28T19:08:04.724Z,100688.64
2018-11-28T19:10:33.704Z,100699.53
2018-11-28T19:13:02.547Z,100709.11
2018-11-28T19:15:31.404Z,100706.71
2018-11-28T19:18:00.666Z,100705.27
2018-11-28T19:20:29.612Z,100710.52
2018-11-28T19:22:58.832Z,100706.23
2018-11-28T19:25:28.952Z,100707.16
2018-11-28T19:27:57.912Z,100717.95
2018-11-28T19:30:31.000Z,100710.33
2018-11-28T19:32:57.384Z,100712.32
2018-11-28T19:35:26.168Z,100708.27
2018-11-28T19:37:54.994Z,100700.92
2018-11-28T19:40:26.403Z,100708.81
2018-11-28T19:42:55.323Z,100706.69
2018-11-28T19:45:24.085Z,100707.38
2018-11-28T19:47:52.823Z,100703.01
2018-11-28T19:50:27.183Z,100701.77
2018-11-28T19:52:55.864Z,100695.97
2018-11-28T19:55:24.804Z,100690.46
2018-11-28T19:57:53.564Z,100694.27
2018-11-28T20:00:23.164Z,100700.78
2018-11-28T20:02:52.585Z,100704.77
2018-11-28T20:05:22.524Z,100705.67
2018-11-28T20:07:53.143Z,100699.88
2018-11-28T20:10:23.865Z,100703.09
2018-11-28T20:12:52.884Z,100689.16
2018-11-28T20:15:24.464Z,100700.63
2018-11-28T20:17:53.503Z,100695.41
2018-11-28T20:20:22.244Z,100696.49
2018-11-28T20:22:50.783Z,100696.34
2018-11-28T20:25:20.784Z,100692.59
2018-11-28T20:27:52.464Z,100677.44
2018-11-28T20:30:24.603Z,100680.41
2018-11-28T20:32:53.444Z,100687.63
2018-11-28T20:35:22.545Z,100674.30
2018-11-28T20:37:51.724Z,100676.12
2018-11-28T20:40:20.544Z,100674.52
2018-11-28T20:42:52.747Z,100679.87
2018-11-28T20:45:22.104Z,100681.48
2018-11-28T20:47:50.784Z,100684.08
2018-11-28T20:50:24.994Z,100690.98
2018-11-28T20:52:55.910Z,100673.91
2018-11-28T20:55:25.565Z,100665.93
2018-11-28T20:57:55.135Z,100665.16
2018-11-28T21:00:25.162Z,100664.79
2018-11-28T21:02:53.993Z,100665.40
2018-11-28T21:05:22.530Z,100672.27
2018-11-28T21:07:51.233Z,100678.55
2018-11-28T21:10:25.462Z,100673.21
2018-11-28T21:12:54.363Z,100669.00
2018-11-28T21:15:23.091Z,100680.02
2018-11-28T21:17:52.074Z,100679.56
2018-11-28T21:20:21.949Z,100668.84
2018-11-28T21:22:52.788Z,100666.64
2018-11-28T21:25:21.974Z,100668.55
2018-11-28T21:27:51.543Z,100658.73
2018-11-28T21:30:20.837Z,100651.19
2018-11-28T21:32:51.707Z,100649.31
2018-11-28T21:35:25.242Z,100648.77
2018-11-28T21:37:54.838Z,100658.34
2018-11-28T21:40:23.552Z,100647.09
2018-11-28T21:42:54.938Z,100646.41
2018-11-28T21:45:24.378Z,100643.94
2018-11-28T21:47:53.188Z,100643.47
2018-11-28T21:50:22.078Z,100644.61
2018-11-28T21:52:50.827Z,100640.33
2018-11-28T21:55:21.623Z,100643.38
2018-11-28T21:57:51.323Z,100637.46
2018-11-28T22:00:21.922Z,100638.90
2018-11-28T22:02:50.960Z,100642.64
2018-11-28T22:05:19.588Z,100637.27
2018-11-28T22:07:48.418Z,100633.82
2018-11-28T22:10:25.754Z,100635.16
2018-11-28T22:12:55.688Z,100610.80
2018-11-28T22:15:24.629Z,100633.12
2018-11-28T22:17:54.925Z,100623.23
2018-11-28T22:20:24.548Z,100631.88
2018-11-28T22:22:53.620Z,100632.98
2018-11-28T22:25:23.520Z,100627.50
2018-11-28T22:27:52.238Z,100626.00
2018-11-28T22:30:21.992Z,100619.52
2018-11-28T22:32:50.836Z,100617.02
2018-11-28T22:35:19.587Z,100618.02
2018-11-28T22:37:48.829Z,100623.13
2018-11-28T22:40:19.661Z,100623.06
2018-11-28T22:42:48.510Z,100631.34
2018-11-28T22:45:19.265Z,100623.83
2018-11-28T22:47:47.919Z,100613.87
2018-11-28T22:50:16.597Z,100615.48
2018-11-28T22:52:45.473Z,100617.35
2018-11-28T22:55:19.517Z,100618.55
2018-11-28T22:57:48.155Z,100619.27
2018-11-28T23:00:26.696Z,100615.58
2018-11-28T23:03:01.241Z,100612.02
2018-11-28T23:05:36.159Z,100617.59
2018-11-28T23:08:07.106Z,100600.48
2018-11-28T23:10:35.704Z,100600.30
2018-11-28T23:13:04.285Z,100600.19
2018-11-28T23:15:33.275Z,100611.08
2018-11-28T23:18:02.002Z,100609.41
2018-11-28T23:20:30.606Z,100602.59
2018-11-28T23:22:59.139Z,100605.20
2018-11-28T23:25:27.794Z,100593.08
2018-11-28T23:27:56.515Z,100580.41
2018-11-28T23:30:25.227Z,100580.48
2018-11-28T23:32:54.890Z,100570.12
2018-11-28T23:35:24.068Z,100563.13
2018-11-28T23:37:52.583Z,100557.04
2018-11-28T23:40:23.193Z,100568.89
2018-11-28T23:42:52.315Z,100578.53
2018-11-28T23:45:21.167Z,100572.45
2018-11-28T23:47:49.921Z,100569.89
2018-11-28T23:50:21.463Z,100553.12
2018-11-28T23:52:50.774Z,100554.17
2018-11-28T23:55:25.928Z,100545.48
2018-11-28T23:57:54.930Z,100537.77
